createdAt,value
2022-11-02T00:00:32.619Z,18.00
2022-11-02T00:03:01.309Z,19.83
2022-11-02T00:05:31.187Z,10.90
2022-11-02T00:07:59.715Z,16.38
2022-11-02T00:10:29.961Z,16.25
2022-11-02T00:12:58.927Z,12.60
2022-11-02T00:15:32.822Z,13.10
2022-11-02T00:20:40.627Z,14.05
2022-11-02T00:23:11.053Z,14.90
2022-11-02T00:25:45.654Z,14.05
2022-11-02T00:28:14.920Z,16.88
2022-11-02T00:30:45.432Z,14.60
2022-11-02T00:33:13.879Z,11.82
2022-11-02T00:35:45.205Z,13.90
2022-11-02T00:38:13.819Z,13.63
2022-11-02T00:40:42.273Z,11.30
2022-11-02T00:43:10.737Z,10.95
2022-11-02T00:45:39.777Z,11.85
2022-11-02T00:48:10.321Z,13.95
2022-11-02T00:50:38.834Z,12.57
2022-11-02T00:53:07.525Z,10.48
2022-11-02T00:55:39.216Z,8.88
2022-11-02T00:58:08.416Z,15.27
2022-11-02T01:00:37.222Z,15.98
2022-11-02T01:03:05.685Z,16.83
2022-11-02T01:05:35.858Z,15.70
2022-11-02T01:08:04.820Z,12.98
2022-11-02T01:10:33.521Z,14.05
2022-11-02T01:13:03.144Z,13.85
2022-11-02T01:15:31.613Z,12.50
2022-11-02T01:18:00.178Z,12.77
2022-11-02T01:20:29.227Z,12.95
2022-11-02T01:23:00.325Z,14.38
2022-11-02T01:25:28.829Z,10.07
2022-11-02T01:27:57.346Z,13.48
2022-11-02T01:30:25.751Z,12.90
2022-11-02T01:32:54.518Z,10.70
2022-11-02T01:35:22.963Z,11.80
2022-11-02T01:37:51.382Z,13.48
2022-11-02T01:40:21.653Z,24.63
2022-11-02T01:42:50.134Z,10.95
2022-11-02T01:45:18.703Z,10.20
2022-11-02T01:47:49.898Z,9.60
2022-11-02T01:50:22.997Z,13.65
2022-11-02T01:52:51.476Z,8.50
2022-11-02T01:55:25.345Z,10.90
2022-11-02T01:57:57.415Z,11.73
2022-11-02T02:00:25.908Z,13.75
2022-11-02T02:03:09.084Z,9.07
2022-11-02T02:05:43.193Z,13.88
2022-11-02T02:08:15.890Z,12.70
2022-11-02T02:10:45.816Z,10.57
2022-11-02T02:13:15.255Z,13.20
2022-11-02T02:15:56.185Z,9.50
2022-11-02T02:18:34.436Z,17.92
2022-11-02T02:21:15.581Z,9.20
2022-11-02T02:24:20.867Z,13.75
2022-11-02T02:27:09.202Z,13.95
2022-11-02T02:29:52.935Z,15.30
2022-11-02T02:32:29.536Z,9.02
2022-11-02T02:35:09.460Z,9.68
2022-11-02T02:37:43.117Z,14.25
2022-11-02T02:40:18.504Z,16.35
2022-11-02T02:42:54.195Z,12.35
2022-11-02T02:45:28.208Z,9.05
2022-11-02T02:48:02.983Z,10.15
2022-11-02T02:50:38.654Z,13.45
2022-11-02T02:53:09.165Z,14.05
2022-11-02T02:55:44.688Z,12.52
2022-11-02T02:58:17.654Z,20.90
2022-11-02T03:00:48.106Z,10.23
2022-11-02T03:03:20.360Z,10.57
2022-11-02T03:06:05.250Z,12.13
2022-11-02T03:08:38.259Z,11.50
2022-11-02T03:11:13.739Z,10.10
2022-11-02T03:13:59.954Z,16.50
2022-11-02T03:16:44.142Z,17.52
2022-11-02T03:19:24.367Z,10.85
2022-11-02T03:22:00.611Z,11.23
2022-11-02T03:24:35.731Z,7.95
2022-11-02T03:27:18.006Z,9.05
2022-11-02T03:29:54.694Z,12.88
2022-11-02T03:32:30.417Z,8.95
2022-11-02T03:35:03.734Z,16.75
2022-11-02T03:37:39.439Z,13.00
2022-11-02T03:40:13.364Z,10.02
2022-11-02T03:42:45.245Z,16.60
2022-11-02T03:45:17.255Z,11.00
2022-11-02T03:47:51.512Z,9.80
2022-11-02T03:50:23.238Z,16.58
2022-11-02T03:53:03.737Z,13.15
2022-11-02T03:55:38.039Z,9.55
2022-11-02T03:58:07.035Z,7.70
2022-11-02T04:00:38.508Z,12.38
2022-11-02T04:03:13.406Z,10.55
2022-11-02T04:05:45.389Z,15.02
2022-11-02T04:08:29.729Z,15.13
2022-11-02T04:11:22.063Z,10.65
2022-11-02T04:14:09.962Z,20.02
2022-11-02T04:16:41.725Z,11.15
2022-11-02T04:19:28.300Z,12.48
2022-11-02T04:22:19.284Z,12.05
2022-11-02T04:25:08.391Z,12.32
2022-11-02T04:27:37.708Z,10.20
2022-11-02T04:30:06.854Z,7.40
2022-11-02T04:32:56.541Z,7.88
2022-11-02T04:35:28.111Z,8.27
2022-11-02T04:38:14.449Z,10.10
2022-11-02T04:40:42.888Z,10.57
2022-11-02T04:43:11.548Z,8.73
2022-11-02T04:45:40.705Z,8.43
2022-11-02T04:48:11.341Z,9.70
2022-11-02T04:50:41.884Z,11.68
2022-11-02T04:53:11.008Z,11.13
2022-11-02T04:55:41.014Z,8.43
2022-11-02T04:58:09.502Z,8.98
2022-11-02T05:03:48.898Z,13.50
2022-11-02T05:06:20.529Z,12.95
2022-11-02T05:08:50.324Z,6.13
2022-11-02T05:11:19.663Z,8.10
2022-11-02T05:13:50.534Z,6.97
2022-11-02T05:16:20.238Z,9.18
2022-11-02T05:18:51.520Z,5.78
2022-11-02T05:21:22.594Z,9.18
2022-11-02T05:23:52.205Z,4.82
2022-11-02T05:26:20.655Z,9.27
2022-11-02T05:28:52.788Z,6.63
2022-11-02T05:31:22.333Z,9.98
2022-11-02T05:33:51.621Z,8.65
2022-11-02T05:36:24.477Z,8.43
2022-11-02T05:38:54.476Z,7.45
2022-11-02T05:41:23.345Z,9.07
2022-11-02T05:43:54.089Z,13.43
2022-11-02T05:46:24.173Z,9.20
2022-11-02T05:48:52.729Z,7.13
2022-11-02T05:51:21.190Z,9.07
2022-11-02T05:53:51.524Z,12.88
2022-11-02T05:56:24.779Z,8.50
2022-11-02T05:58:55.660Z,10.88
2022-11-02T06:01:24.224Z,10.63
2022-11-02T06:03:53.950Z,12.48
2022-11-02T06:06:23.143Z,11.35
2022-11-02T06:08:52.986Z,6.97
2022-11-02T06:11:21.505Z,8.68
2022-11-02T06:13:51.941Z,8.00
2022-11-02T06:16:23.233Z,8.63
2022-11-02T06:18:52.164Z,7.50
2022-11-02T06:21:20.608Z,12.32
2022-11-02T06:23:49.633Z,8.85
2022-11-02T06:26:19.748Z,9.73
2022-11-02T06:28:48.375Z,6.07
2022-11-02T06:31:17.547Z,12.77
2022-11-02T06:33:46.104Z,7.10
2022-11-02T06:36:14.590Z,10.75
2022-11-02T06:38:43.267Z,7.85
2022-11-02T06:41:12.114Z,5.93
2022-11-02T06:43:42.721Z,6.13
2022-11-02T06:46:11.171Z,6.13
2022-11-02T06:48:39.595Z,7.72
2022-11-02T06:51:08.321Z,7.93
2022-11-02T06:53:36.759Z,7.05
2022-11-02T06:56:05.667Z,9.52
2022-11-02T06:58:34.160Z,6.13
2022-11-02T07:01:08.112Z,9.45
2022-11-02T07:03:37.234Z,11.05
2022-11-02T07:06:11.132Z,6.15
2022-11-02T07:08:43.615Z,6.68
2022-11-02T07:11:15.594Z,7.18
2022-11-02T07:13:44.082Z,10.15
2022-11-02T07:16:14.131Z,6.93
2022-11-02T07:18:42.875Z,8.27
2022-11-02T07:21:12.250Z,9.98
2022-11-02T07:23:40.702Z,7.28
2022-11-02T07:26:09.151Z,12.85
2022-11-02T07:28:38.555Z,7.43
2022-11-02T07:31:07.318Z,13.88
2022-11-02T07:33:37.212Z,6.40
2022-11-02T07:36:06.763Z,5.75
2022-11-02T07:38:35.281Z,5.82
2022-11-02T07:41:03.921Z,5.18
2022-11-02T07:43:32.589Z,5.43
2022-11-02T07:46:07.064Z,7.10
2022-11-02T07:48:37.100Z,4.60
2022-11-02T07:51:05.945Z,5.47
2022-11-02T07:53:34.534Z,6.68
2022-11-02T07:56:04.151Z,5.07
2022-11-02T07:58:33.074Z,6.35
2022-11-02T08:01:02.724Z,3.75
2022-11-02T08:03:31.277Z,4.50
2022-11-02T08:06:03.016Z,9.90
2022-11-02T08:08:31.960Z,6.28
2022-11-02T08:11:06.553Z,4.78
2022-11-02T08:13:35.618Z,3.38
2022-11-02T08:16:04.285Z,6.75
2022-11-02T08:18:33.080Z,5.80
2022-11-02T08:21:04.420Z,7.40
2022-11-02T08:23:32.847Z,3.60
2022-11-02T08:26:01.465Z,4.95
2022-11-02T08:28:32.761Z,9.52
2022-11-02T08:31:01.217Z,3.15
2022-11-02T08:33:29.726Z,5.35
2022-11-02T08:36:05.006Z,7.15
2022-11-02T08:38:36.452Z,5.28
2022-11-02T08:41:05.362Z,6.70
2022-11-02T08:43:33.822Z,9.80
2022-11-02T08:46:18.451Z,5.53
2022-11-02T08:48:47.259Z,5.85
2022-11-02T08:51:17.092Z,4.40
2022-11-02T08:53:51.283Z,8.55
2022-11-02T08:56:20.412Z,5.72
2022-11-02T08:58:49.120Z,8.23
2022-11-02T09:01:17.676Z,4.75
2022-11-02T09:03:46.517Z,14.80
2022-11-02T09:06:16.416Z,5.57
2022-11-02T09:08:44.877Z,3.75
2022-11-02T09:11:13.653Z,4.68
2022-11-02T09:13:42.363Z,6.32
2022-11-02T09:16:10.884Z,8.13
2022-11-02T09:18:39.550Z,3.60
2022-11-02T09:21:08.080Z,8.90
2022-11-02T09:23:38.071Z,3.65
2022-11-02T09:26:06.835Z,7.55
2022-11-02T09:28:35.293Z,5.10
2022-11-02T09:31:07.487Z,4.30
2022-11-02T09:33:39.408Z,5.10
2022-11-02T09:36:08.574Z,5.07
2022-11-02T09:38:38.430Z,10.05
2022-11-02T09:41:14.842Z,7.85
2022-11-02T09:43:54.789Z,6.50
2022-11-02T09:46:28.264Z,6.13
2022-11-02T09:49:00.203Z,5.53
2022-11-02T09:51:34.679Z,4.43
2022-11-02T09:54:13.043Z,7.30
2022-11-02T09:56:44.114Z,2.65
2022-11-02T09:59:15.731Z,7.05
2022-11-02T10:01:55.672Z,5.93
2022-11-02T10:04:50.428Z,6.97
2022-11-02T10:07:29.781Z,5.57
2022-11-02T10:10:04.613Z,4.88
2022-11-02T10:12:44.643Z,6.65
2022-11-02T10:15:19.109Z,4.70
2022-11-02T10:17:50.676Z,6.55
2022-11-02T10:20:26.991Z,8.30
2022-11-02T10:23:01.031Z,5.07
2022-11-02T10:25:30.959Z,4.07
2022-11-02T10:28:06.655Z,9.68
2022-11-02T10:30:36.073Z,5.25
2022-11-02T10:33:14.314Z,6.07
2022-11-02T10:38:52.782Z,5.43
2022-11-02T10:41:38.912Z,4.30
2022-11-02T10:44:24.233Z,7.63
2022-11-02T10:47:02.964Z,4.93
2022-11-02T10:50:02.212Z,8.27
2022-11-02T10:52:39.727Z,5.57
2022-11-02T10:55:15.184Z,4.60
2022-11-02T10:57:45.250Z,5.38
2022-11-02T11:00:31.685Z,4.75
2022-11-02T11:03:09.109Z,5.60
2022-11-02T11:05:45.463Z,7.43
2022-11-02T11:08:30.675Z,10.25
2022-11-02T11:11:16.263Z,9.57
2022-11-02T11:16:45.839Z,8.85
2022-11-02T11:19:40.338Z,6.80
2022-11-02T11:22:27.056Z,4.63
2022-11-02T11:25:15.633Z,13.73
2022-11-02T11:27:46.674Z,6.68
2022-11-02T11:30:58.479Z,7.88
2022-11-02T11:33:18.273Z,8.57
2022-11-02T11:35:50.817Z,5.75
2022-11-02T11:38:22.534Z,8.27
2022-11-02T11:40:55.107Z,9.13
2022-11-02T11:43:26.428Z,10.30
2022-11-02T11:46:04.839Z,6.00
2022-11-02T11:48:39.167Z,9.82
2022-11-02T11:51:29.671Z,10.40
2022-11-02T11:54:19.607Z,9.23
2022-11-02T11:56:49.155Z,14.23
2022-11-02T11:59:29.564Z,11.23
2022-11-02T12:02:01.744Z,10.32
2022-11-02T12:04:33.057Z,12.43
2022-11-02T12:07:29.422Z,9.45
2022-11-02T12:10:07.143Z,5.53
2022-11-02T12:12:58.825Z,10.13
2022-11-02T12:15:46.765Z,9.10
2022-11-02T12:18:35.272Z,10.23
2022-11-02T12:21:16.579Z,7.45
2022-11-02T12:24:15.900Z,9.20
2022-11-02T12:26:56.193Z,8.32
2022-11-02T12:29:44.427Z,10.98
2022-11-02T12:32:26.810Z,6.43
2022-11-02T12:35:30.083Z,7.78
2022-11-02T12:38:13.133Z,8.57
2022-11-02T12:40:51.955Z,7.60
2022-11-02T12:43:35.265Z,9.73
2022-11-02T12:46:07.750Z,11.18
2022-11-02T12:48:43.686Z,12.18
2022-11-02T12:51:16.204Z,14.23
2022-11-02T12:53:50.314Z,11.15
2022-11-02T12:56:23.939Z,13.80
2022-11-02T12:58:53.286Z,17.40
2022-11-02T13:01:28.083Z,13.07
2022-11-02T13:04:03.022Z,14.13
2022-11-02T13:06:37.477Z,12.43
2022-11-02T13:09:09.732Z,15.80
2022-11-02T13:11:42.133Z,15.25
2022-11-02T13:14:15.800Z,35.28
2022-11-02T13:16:50.782Z,37.47
2022-11-02T13:19:22.462Z,21.38
2022-11-02T13:21:56.094Z,17.92
2022-11-02T13:24:31.846Z,15.68
2022-11-02T13:27:14.792Z,17.50
2022-11-02T13:29:52.043Z,16.08
2022-11-02T13:32:33.582Z,16.02
2022-11-02T13:35:14.065Z,19.05
2022-11-02T13:37:48.215Z,15.40
2022-11-02T13:40:22.472Z,18.48
2022-11-02T13:43:17.408Z,12.27
2022-11-02T13:45:55.678Z,13.63
2022-11-02T13:48:41.393Z,16.75
2022-11-02T13:51:20.551Z,17.25
2022-11-02T13:53:55.638Z,13.80
2022-11-02T13:56:26.928Z,9.95
2022-11-02T13:58:59.201Z,15.73
2022-11-02T14:01:30.921Z,11.35
2022-11-02T14:04:05.556Z,10.02
2022-11-02T14:06:45.391Z,13.38
2022-11-02T14:09:25.038Z,14.05
2022-11-02T14:12:11.209Z,12.93
2022-11-02T14:14:39.820Z,14.48
2022-11-02T14:17:13.477Z,15.80
2022-11-02T14:20:04.535Z,11.30
2022-11-02T14:22:33.441Z,8.40
2022-11-02T14:25:47.191Z,10.80
2022-11-02T14:28:42.713Z,13.73
2022-11-02T14:31:35.884Z,13.07
2022-11-02T14:34:19.924Z,8.70
2022-11-02T14:37:02.561Z,7.10
2022-11-02T14:39:41.314Z,20.08
2022-11-02T14:42:40.855Z,55.90
2022-11-02T14:45:30.446Z,52.60
2022-11-02T14:48:02.083Z,8.77
2022-11-02T14:50:31.266Z,12.18
2022-11-02T14:53:05.286Z,16.98
2022-11-02T14:55:35.499Z,33.70
2022-11-02T14:58:10.907Z,238.07
2022-11-02T15:00:56.135Z,73.43
2022-11-02T15:03:34.408Z,14.50
2022-11-02T15:06:06.518Z,14.38
2022-11-02T15:08:37.648Z,8.57
2022-11-02T15:11:43.188Z,7.82
2022-11-02T15:14:48.828Z,10.52
2022-11-02T15:18:00.329Z,16.80
2022-11-02T15:20:31.787Z,16.95
2022-11-02T15:23:09.520Z,13.95
2022-11-02T15:25:42.132Z,10.98
2022-11-02T15:28:15.150Z,9.82
2022-11-02T15:30:47.298Z,9.30
2022-11-02T15:33:26.812Z,9.85
2022-11-02T15:35:56.150Z,9.35
2022-11-02T15:38:33.924Z,11.32
2022-11-02T15:41:19.332Z,9.02
2022-11-02T15:44:08.695Z,21.40
2022-11-02T15:46:51.899Z,13.90
2022-11-02T15:49:46.311Z,12.73
2022-11-02T15:52:23.108Z,16.38
2022-11-02T15:55:06.244Z,154.13
2022-11-02T15:57:43.515Z,152.57
2022-11-02T16:00:19.460Z,51.17
2022-11-02T16:02:50.353Z,37.08
2022-11-02T16:05:24.019Z,18.55
2022-11-02T16:08:11.582Z,71.88
2022-11-02T16:10:40.336Z,34.58
2022-11-02T16:13:17.948Z,26.35
2022-11-02T16:15:47.249Z,23.67
2022-11-02T16:18:28.083Z,28.10
2022-11-02T16:21:02.244Z,27.67
2022-11-02T16:23:33.459Z,21.45
2022-11-02T16:26:04.308Z,18.08
2022-11-02T16:28:34.579Z,22.48
2022-11-02T16:31:14.415Z,20.65
2022-11-02T16:33:46.313Z,37.95
2022-11-02T16:36:19.039Z,45.20
2022-11-02T16:38:58.463Z,254.88
2022-11-02T16:41:28.620Z,194.98
2022-11-02T16:43:58.816Z,85.50
2022-11-02T16:46:32.043Z,121.78
2022-11-02T16:49:08.644Z,45.50
2022-11-02T16:51:38.988Z,56.22
2022-11-02T16:54:29.238Z,37.40
2022-11-02T16:57:04.924Z,28.85
2022-11-02T16:59:37.244Z,33.13
2022-11-02T17:02:10.714Z,34.47
2022-11-02T17:04:43.154Z,26.15
2022-11-02T17:07:17.871Z,26.70
2022-11-02T17:09:53.020Z,24.90
2022-11-02T17:12:31.053Z,27.15
2022-11-02T17:15:00.433Z,24.55
2022-11-02T17:17:36.373Z,26.85
2022-11-02T17:20:24.404Z,57.90
2022-11-02T17:22:57.714Z,34.42
2022-11-02T17:25:28.634Z,48.80
2022-11-02T17:27:58.951Z,37.53
2022-11-02T17:30:48.104Z,41.95
2022-11-02T17:33:28.399Z,39.72
2022-11-02T17:36:04.150Z,47.03
2022-11-02T17:38:34.350Z,47.75
2022-11-02T17:41:23.124Z,44.90
2022-11-02T17:43:51.015Z,59.28
2022-11-02T17:46:19.544Z,53.85
2022-11-02T17:48:47.985Z,55.40
2022-11-02T17:51:16.851Z,47.92
2022-11-02T17:53:46.691Z,56.85
2022-11-02T17:56:15.404Z,51.60
2022-11-02T17:58:44.039Z,56.78
2022-11-02T18:01:13.921Z,53.90
2022-11-02T18:03:42.534Z,60.85
2022-11-02T18:06:10.994Z,46.55
2022-11-02T18:08:53.277Z,55.45
2022-11-02T18:11:26.452Z,66.13
2022-11-02T18:13:55.268Z,47.58
2022-11-02T18:16:23.740Z,49.95
2022-11-02T18:18:52.166Z,50.97
2022-11-02T18:21:20.607Z,67.18
2022-11-02T18:23:49.076Z,49.67
2022-11-02T18:26:17.520Z,49.50
2022-11-02T18:28:47.424Z,49.80
2022-11-02T18:31:15.869Z,45.45
2022-11-02T18:33:45.282Z,53.25
2022-11-02T18:36:13.685Z,48.42
2022-11-02T18:38:42.432Z,38.70
2022-11-02T18:41:25.800Z,36.70
2022-11-02T18:44:02.384Z,51.65
2022-11-02T18:46:33.588Z,49.92
2022-11-02T18:49:02.273Z,52.38
2022-11-02T18:51:30.732Z,63.28
2022-11-02T18:54:00.088Z,49.28
2022-11-02T18:56:29.510Z,49.88
2022-11-02T18:59:00.034Z,46.95
2022-11-02T19:01:29.029Z,37.13
2022-11-02T19:03:59.059Z,47.75
2022-11-02T19:06:46.666Z,50.50
2022-11-02T19:09:23.349Z,47.35
2022-11-02T19:11:56.883Z,44.92
2022-11-02T19:14:28.013Z,43.92
2022-11-02T19:16:56.795Z,60.95
2022-11-02T19:19:25.294Z,42.03
2022-11-02T19:21:53.837Z,48.78
2022-11-02T19:24:22.352Z,43.58
2022-11-02T19:26:51.028Z,53.78
2022-11-02T19:29:19.616Z,56.58
2022-11-02T19:31:49.477Z,43.33
2022-11-02T19:34:17.946Z,38.45
2022-11-02T19:36:46.403Z,32.83
2022-11-02T19:39:14.857Z,35.20
2022-11-02T19:41:43.264Z,43.83
2022-11-02T19:44:12.893Z,38.80
2022-11-02T19:46:44.430Z,36.58
2022-11-02T19:49:14.378Z,32.13
2022-11-02T19:51:42.947Z,34.17
2022-11-02T19:54:11.435Z,39.28
2022-11-02T19:56:39.913Z,42.63
2022-11-02T19:59:08.436Z,39.05
2022-11-02T20:01:38.545Z,35.72
2022-11-02T20:04:08.041Z,43.83
2022-11-02T20:06:39.581Z,34.85
2022-11-02T20:09:11.454Z,45.67
2022-11-02T20:11:44.555Z,40.92
2022-11-02T20:14:14.486Z,28.02
2022-11-02T20:16:44.897Z,46.95
2022-11-02T20:19:13.704Z,50.38
2022-11-02T20:21:44.383Z,55.70
2022-11-02T20:24:13.540Z,51.80
2022-11-02T20:26:42.741Z,58.88
2022-11-02T20:29:15.289Z,53.05
2022-11-02T20:31:45.730Z,65.78
2022-11-02T20:34:14.841Z,51.15
2022-11-02T20:36:44.650Z,71.28
2022-11-02T20:39:13.500Z,64.38
2022-11-02T20:41:41.960Z,63.63
2022-11-02T20:44:10.378Z,65.57
2022-11-02T20:46:41.825Z,62.60
2022-11-02T20:49:22.191Z,57.30
2022-11-02T20:51:59.080Z,52.70
2022-11-02T20:54:29.989Z,69.57
2022-11-02T20:56:58.990Z,61.42
2022-11-02T20:59:27.504Z,60.17
2022-11-02T21:01:56.095Z,63.50
2022-11-02T21:04:24.876Z,64.47
2022-11-02T21:06:53.729Z,57.78
2022-11-02T21:09:23.751Z,72.53
2022-11-02T21:12:09.563Z,64.38
2022-11-02T21:14:38.386Z,64.68
2022-11-02T21:17:07.235Z,54.92
2022-11-02T21:19:35.716Z,46.67
2022-11-02T21:22:04.305Z,50.90
2022-11-02T21:24:34.229Z,48.88
2022-11-02T21:27:03.424Z,63.10
2022-11-02T21:29:31.804Z,55.22
2022-11-02T21:32:00.808Z,49.85
2022-11-02T21:34:29.273Z,52.90
2022-11-02T21:36:58.798Z,52.10
2022-11-02T21:39:27.332Z,47.80
2022-11-02T21:41:57.217Z,56.00
2022-11-02T21:44:26.430Z,55.42
2022-11-02T21:46:55.922Z,46.80
2022-11-02T21:49:24.706Z,48.33
2022-11-02T21:51:53.332Z,52.38
2022-11-02T21:54:22.612Z,60.58
2022-11-02T21:56:56.007Z,44.67
2022-11-02T21:59:27.186Z,44.55
2022-11-02T22:01:55.021Z,41.47
2022-11-02T22:04:28.421Z,49.50
2022-11-02T22:06:57.579Z,51.28
2022-11-02T22:09:33.850Z,51.42
2022-11-02T22:12:23.998Z,40.75
2022-11-02T22:14:54.409Z,38.33
2022-11-02T22:17:47.807Z,43.50
2022-11-02T22:20:12.642Z,46.47
2022-11-02T22:22:41.171Z,43.40
2022-11-02T22:25:10.200Z,40.50
2022-11-02T22:27:38.859Z,48.47
2022-11-02T22:30:11.178Z,51.22
2022-11-02T22:32:40.170Z,46.60
2022-11-02T22:35:10.068Z,43.38
2022-11-02T22:37:56.335Z,41.10
2022-11-02T22:40:24.909Z,37.83
2022-11-02T22:42:55.167Z,52.20
2022-11-02T22:45:25.171Z,44.42
2022-11-02T22:47:53.662Z,41.08
2022-11-02T22:50:25.138Z,41.95
2022-11-02T22:52:56.291Z,41.42
2022-11-02T22:55:24.803Z,47.97
2022-11-02T22:57:59.673Z,41.10
2022-11-02T23:00:30.158Z,49.55
2022-11-02T23:02:58.707Z,44.78
2022-11-02T23:05:27.148Z,39.47
2022-11-02T23:07:55.784Z,42.22
2022-11-02T23:10:43.648Z,36.83
2022-11-02T23:13:12.306Z,41.40
2022-11-02T23:15:42.294Z,39.20
2022-11-02T23:18:11.162Z,29.73
2022-11-02T23:20:38.889Z,40.53
2022-11-02T23:23:24.590Z,35.33
2022-11-02T23:25:57.114Z,37.10
2022-11-02T23:28:43.372Z,30.33
2022-11-02T23:31:30.348Z,37.35
2022-11-02T23:33:58.775Z,32.80
2022-11-02T23:44:21.034Z,36.65
2022-11-02T23:46:53.883Z,38.15
2022-11-02T23:49:22.355Z,37.00
2022-11-02T23:52:08.365Z,33.78
2022-11-02T23:54:54.432Z,34.38
2022-11-02T23:57:25.523Z,29.05
2022-11-02T23:59:54.034Z,31.67
